Terminal Aerodrome Forecast
Issued by NWS Bismarck, ND

Home | Current Version | Previous Version | Graphics & Text | Print | Product List | Glossary On
Versions: 1 2 3 4 5 6 7 8 9 10 11 12 13 14 15 16 17 18 19 20 21 22
000
FTUS43 KBIS 110645 AAC
TAFBIS
TAF AMD
KBIS 110645Z 1107/1206 30021G31KT P6SM VCSH BKN050
     FM110900 32022G32KT P6SM VCSH OVC020
     FM111900 33016KT P6SM VCSH OVC020
     FM120100 33011KT P6SM BKN020=

USA.gov is the U.S. government's official web portal to all federal, state and local government web resources and services.